Terminal Aerodrome Forecast
Issued by NWS

Home | Current Version | Previous Version | Text Only | Print | Product List | Glossary On
Versions: 1 2 3 4 5 6 7 8 9 10 11 12 13 14 15 16 17 18 19
000
FTUS45 KABQ 302151 AAA
TAFTCC
TAF AMD
KTCC 302151Z 3022/3118 23015G25KT P6SM VCSH SCT080 BKN200
     FM310000 18015KT P6SM VCTS BKN070CB OVC140
      TEMPO 3100/3101 VRB25G35KT -SHRA BKN060
     FM310200 15013KT P6SM FEW070 SCT140
     FM310700 22008KT P6SM SCT040=

USA.gov is the U.S. government's official web portal to all federal, state and local government web resources and services.